Time;durP1;ratioP1;P1;durP2;ratioP2;P2;SDS_P1;SDS_P2;PMS_P1;PMS_P2;Temp;Humidity;BMP_temperature;BMP_pressure;BME280_temperature;BME280_humidity;BME280_pressure;Samples;Min_cycle;Max_cycle;Signal;HPM_P1;HPM_P2
2024/02/19 00:00:11;;;;;;;;;;;9.40;91.20;;;;;;4960804;28;19949;-73
2024/02/19 00:02:44;;;;;;;;;;;9.40;91.40;;;;;;4970121;28;19984;-72
2024/02/19 00:05:17;;;;;;;;;;;9.50;91.20;;;;;;4966725;28;19933;-74
2024/02/19 00:07:50;;;;;;;;;;;9.60;91.10;;;;;;4970835;28;20312;-72
2024/02/19 00:10:24;;;;;;;;;;;9.60;91.20;;;;;;4964822;28;20296;-73
2024/02/19 00:12:57;;;;;;;;;;;9.60;91.10;;;;;;4971711;28;20377;-73
2024/02/19 00:15:32;;;;;;;;;;;9.60;91.20;;;;;;4972206;28;20340;-73
2024/02/19 00:18:06;;;;;;;;;;;9.70;91.20;;;;;;4971669;28;20002;-73
2024/02/19 00:20:39;;;;;;;;;;;9.70;91.00;;;;;;4971491;28;19983;-74
2024/02/19 00:23:06;;;;;;;;;;;9.70;91.00;;;;;;4972300;28;19926;-72
2024/02/19 00:25:39;;;;;;;;;;;9.70;90.90;;;;;;4965261;28;19967;-61
2024/02/19 00:28:12;;;;;;;;;;;9.70;90.90;;;;;;4961340;28;20021;-63
2024/02/19 00:30:46;;;;;;;;;;;9.70;90.80;;;;;;4960211;28;19926;-62
2024/02/19 00:33:21;;;;;;;;;;;9.90;91.00;;;;;;4959433;28;19937;-60
2024/02/19 00:35:54;;;;;;;;;;;9.90;90.90;;;;;;4968752;28;19926;-60
2024/02/19 00:38:27;;;;;;;;;;;9.90;91.00;;;;;;4969783;28;19945;-60
2024/02/19 00:41:01;;;;;;;;;;;9.80;91.00;;;;;;4959077;28;19934;-62
2024/02/19 00:43:41;;;;;;;;;;;9.90;90.90;;;;;;4963262;28;19941;-60
2024/02/19 00:46:16;;;;;;;;;;;9.80;90.90;;;;;;4955328;28;20416;-59
2024/02/19 00:48:49;;;;;;;;;;;9.80;90.90;;;;;;4963452;28;19980;-60
2024/02/19 00:51:22;;;;;;;;;;;9.80;90.90;;;;;;4967783;28;20377;-61
2024/02/19 00:53:55;;;;;;;;;;;9.80;90.80;;;;;;4956406;28;20017;-62
2024/02/19 00:56:28;;;;;;;;;;;9.80;90.80;;;;;;4966797;28;20393;-60
2024/02/19 00:59:01;;;;;;;;;;;9.80;91.10;;;;;;4960914;28;20369;-59
2024/02/19 01:01:35;;;;;;;;;;;9.90;91.40;;;;;;4960882;28;19933;-60
2024/02/19 01:04:09;;;;;;;;;;;10.00;91.30;;;;;;4966364;28;19933;-60
2024/02/19 01:06:42;;;;;;;;;;;10.10;91.40;;;;;;4961369;28;20028;-63
2024/02/19 01:09:16;;;;;;;;;;;10.00;91.10;;;;;;4966266;28;19930;-61
2024/02/19 01:11:49;;;;;;;;;;;9.90;91.00;;;;;;4964212;28;19930;-61
2024/02/19 01:14:22;;;;;;;;;;;9.80;91.10;;;;;;4966894;28;19961;-60
2024/02/19 01:16:56;;;;;;;;;;;9.70;91.10;;;;;;4965927;28;20013;-62
2024/02/19 01:19:31;;;;;;;;;;;9.70;91.20;;;;;;4967781;28;19930;-61
2024/02/19 01:22:04;;;;;;;;;;;9.70;91.20;;;;;;4967664;28;19934;-61
2024/02/19 01:24:38;;;;;;;;;;;9.70;91.20;;;;;;4967403;28;19941;-60
2024/02/19 01:27:11;;;;;;;;;;;9.70;91.20;;;;;;4964414;28;19934;-61
2024/02/19 01:29:45;;;;;;;;;;;9.70;91.40;;;;;;4967541;28;19934;-66
2024/02/19 01:32:20;;;;;;;;;;;9.70;91.30;;;;;;4967039;28;20021;-61
2024/02/19 01:35:00;;;;;;;;;;;9.70;91.40;;;;;;4967838;28;19930;-71
2024/02/19 01:37:33;;;;;;;;;;;9.60;91.40;;;;;;4968963;28;20402;-69
2024/02/19 01:40:00;;;;;;;;;;;9.60;91.30;;;;;;4964401;28;19926;-72
2024/02/19 01:42:33;;;;;;;;;;;9.60;91.50;;;;;;4962723;28;19930;-71
2024/02/19 01:45:08;;;;;;;;;;;9.60;91.40;;;;;;4967301;28;20378;-70
2024/02/19 01:47:43;;;;;;;;;;;9.60;91.40;;;;;;4966059;28;19953;-70
2024/02/19 01:50:16;;;;;;;;;;;9.60;91.50;;;;;;4966139;28;19988;-71
2024/02/19 01:52:50;;;;;;;;;;;9.60;91.60;;;;;;4967428;28;19926;-70
2024/02/19 01:55:24;;;;;;;;;;;9.50;91.70;;;;;;4967729;28;19965;-70
2024/02/19 01:57:58;;;;;;;;;;;9.50;91.70;;;;;;4968616;28;19933;-70
2024/02/19 02:00:37;;;;;;;;;;;9.50;91.60;;;;;;4963336;28;19934;-71
2024/02/19 02:03:16;;;;;;;;;;;9.50;91.60;;;;;;4965563;28;19926;-70
2024/02/19 02:05:49;;;;;;;;;;;9.60;91.60;;;;;;4968582;28;19926;-71
2024/02/19 02:08:22;;;;;;;;;;;9.60;91.60;;;;;;4966920;28;19941;-70
2024/02/19 02:10:55;;;;;;;;;;;9.50;91.60;;;;;;4967600;28;20400;-70
2024/02/19 02:13:28;;;;;;;;;;;9.50;91.60;;;;;;4964312;28;19926;-71
2024/02/19 02:16:02;;;;;;;;;;;9.50;91.60;;;;;;4965112;28;19926;-70
2024/02/19 02:18:31;;;;;;;;;;;9.50;91.80;;;;;;4965981;28;20453;-72
2024/02/19 02:21:04;;;;;;;;;;;9.50;91.70;;;;;;4968338;28;20377;-70
2024/02/19 02:23:37;;;;;;;;;;;9.50;91.70;;;;;;4969604;28;20017;-70
2024/02/19 02:26:10;;;;;;;;;;;9.60;91.60;;;;;;4964264;28;19926;-70
2024/02/19 02:28:45;;;;;;;;;;;9.50;91.60;;;;;;4966237;28;19926;-71
2024/02/19 02:31:11;;;;;;;;;;;9.50;91.70;;;;;;4966192;28;19930;-71
2024/02/19 02:33:44;;;;;;;;;;;9.50;91.70;;;;;;4969621;28;20898;-71
2024/02/19 02:36:17;;;;;;;;;;;9.50;91.70;;;;;;4970402;28;20834;-70
2024/02/19 02:38:50;;;;;;;;;;;9.40;91.70;;;;;;4972065;28;19930;-71
2024/02/19 02:41:23;;;;;;;;;;;9.50;91.70;;;;;;4967901;28;19949;-69
2024/02/19 02:43:58;;;;;;;;;;;9.50;91.70;;;;;;4969818;28;19969;-74
2024/02/19 02:46:24;;;;;;;;;;;9.50;91.70;;;;;;4966318;28;20012;-74
2024/02/19 02:48:57;;;;;;;;;;;9.50;91.80;;;;;;4970788;28;19981;-74
2024/02/19 02:51:30;;;;;;;;;;;9.40;91.90;;;;;;4965993;28;21081;-78
2024/02/19 02:54:03;;;;;;;;;;;9.40;92.00;;;;;;4968575;28;19953;-75
2024/02/19 02:56:36;;;;;;;;;;;9.40;92.00;;;;;;4963064;28;20032;-78
2024/02/19 02:59:11;;;;;;;;;;;9.40;91.90;;;;;;4966095;28;19941;-77
2024/02/19 03:01:43;;;;;;;;;;;9.40;91.90;;;;;;4971496;28;19926;-76
2024/02/19 03:04:16;;;;;;;;;;;9.40;91.90;;;;;;4969023;28;20009;-75
2024/02/19 03:06:43;;;;;;;;;;;9.40;91.80;;;;;;4971335;28;19926;-74
2024/02/19 03:09:16;;;;;;;;;;;9.40;91.70;;;;;;4970681;28;19930;-74
2024/02/19 03:11:49;;;;;;;;;;;9.40;91.70;;;;;;4969283;28;19926;-73
2024/02/19 03:14:24;;;;;;;;;;;9.40;91.80;;;;;;4972147;28;19934;-77
2024/02/19 03:16:57;;;;;;;;;;;9.40;91.80;;;;;;4971681;28;19930;-76
2024/02/19 03:19:30;;;;;;;;;;;9.40;91.80;;;;;;4965477;28;19930;-73
2024/02/19 03:22:04;;;;;;;;;;;9.40;91.80;;;;;;4968923;28;19953;-74
2024/02/19 03:24:37;;;;;;;;;;;9.40;91.80;;;;;;4968653;28;19969;-73
2024/02/19 03:27:10;;;;;;;;;;;9.40;91.80;;;;;;4968473;28;19974;-76
2024/02/19 03:29:45;;;;;;;;;;;9.40;91.80;;;;;;4967738;28;19980;-74
2024/02/19 03:32:18;;;;;;;;;;;9.40;91.80;;;;;;4966595;28;19968;-73
2024/02/19 03:34:51;;;;;;;;;;;9.40;91.70;;;;;;4965235;28;19937;-76
2024/02/19 03:37:25;;;;;;;;;;;9.40;91.80;;;;;;4971260;28;20009;-74
2024/02/19 03:39:58;;;;;;;;;;;9.40;91.80;;;;;;4965487;28;19926;-75
2024/02/19 03:42:31;;;;;;;;;;;9.40;91.70;;;;;;4968375;28;19930;-76
2024/02/19 03:45:06;;;;;;;;;;;9.40;91.60;;;;;;4969686;28;19934;-74
2024/02/19 03:47:41;;;;;;;;;;;9.50;91.60;;;;;;4967509;28;19930;-73
2024/02/19 03:50:14;;;;;;;;;;;9.40;91.60;;;;;;4972461;28;19956;-74
2024/02/19 03:52:47;;;;;;;;;;;9.40;91.60;;;;;;4967093;28;19949;-74
2024/02/19 03:55:20;;;;;;;;;;;9.40;91.50;;;;;;4967919;28;19932;-72
2024/02/19 03:57:54;;;;;;;;;;;9.40;91.60;;;;;;4959611;28;19933;-76
2024/02/19 04:00:30;;;;;;;;;;;9.40;91.60;;;;;;4963596;28;19930;-74
2024/02/19 04:03:04;;;;;;;;;;;9.40;91.60;;;;;;4970053;28;19949;-73
2024/02/19 04:05:30;;;;;;;;;;;9.40;91.50;;;;;;4969786;28;19930;-75
2024/02/19 04:08:04;;;;;;;;;;;9.40;91.50;;;;;;4969825;28;19934;-73
2024/02/19 04:10:37;;;;;;;;;;;9.40;91.40;;;;;;4971901;28;19953;-74
2024/02/19 04:13:10;;;;;;;;;;;9.40;91.40;;;;;;4968705;28;20004;-73
2024/02/19 04:15:38;;;;;;;;;;;9.40;91.40;;;;;;4971495;28;19981;-73
2024/02/19 04:18:11;;;;;;;;;;;9.40;91.40;;;;;;4970864;28;19926;-74
2024/02/19 04:20:44;;;;;;;;;;;9.40;91.30;;;;;;4966501;28;20404;-71
2024/02/19 04:23:17;;;;;;;;;;;9.40;91.20;;;;;;4969972;28;19932;-73
2024/02/19 04:25:50;;;;;;;;;;;9.40;91.20;;;;;;4971312;28;19934;-73
2024/02/19 04:28:23;;;;;;;;;;;9.50;91.00;;;;;;4969650;28;19926;-72
2024/02/19 04:30:58;;;;;;;;;;;9.50;91.00;;;;;;4970480;28;20380;-74
2024/02/19 04:33:31;;;;;;;;;;;9.50;90.90;;;;;;4974572;28;20216;-75
2024/02/19 04:35:58;;;;;;;;;;;9.40;90.80;;;;;;4972359;28;19962;-75
2024/02/19 04:38:31;;;;;;;;;;;9.40;90.80;;;;;;4969300;28;21345;-73
2024/02/19 04:41:04;;;;;;;;;;;9.40;90.80;;;;;;4965883;28;19957;-72
2024/02/19 04:50:48;;;;;;;;;;;9.40;90.60;;;;;;4947641;28;19968;-71
2024/02/19 04:53:21;;;;;;;;;;;9.40;90.50;;;;;;4964846;28;19933;-72
2024/02/19 04:55:54;;;;;;;;;;;9.40;90.50;;;;;;4963656;28;19926;-74
2024/02/19 04:58:27;;;;;;;;;;;9.40;90.30;;;;;;4962966;28;20056;-74
2024/02/19 05:01:01;;;;;;;;;;;9.40;90.40;;;;;;4959661;28;19933;-73
2024/02/19 05:03:34;;;;;;;;;;;9.40;90.20;;;;;;4965069;28;19937;-73
2024/02/19 05:06:09;;;;;;;;;;;9.40;90.10;;;;;;4967154;28;19936;-63
2024/02/19 05:08:35;;;;;;;;;;;9.40;89.80;;;;;;4957669;28;19927;-64
2024/02/19 05:11:08;;;;;;;;;;;9.40;89.70;;;;;;4964030;28;20020;-64
2024/02/19 05:13:41;;;;;;;;;;;9.40;89.70;;;;;;4968881;28;19933;-64
2024/02/19 05:16:14;;;;;;;;;;;9.30;89.50;;;;;;4965133;28;19930;-64
2024/02/19 05:18:47;;;;;;;;;;;9.30;89.30;;;;;;4966861;28;19961;-66
2024/02/19 05:21:22;;;;;;;;;;;9.30;89.00;;;;;;4967592;28;19973;-66
2024/02/19 05:23:55;;;;;;;;;;;9.20;88.40;;;;;;4967171;28;19976;-64
2024/02/19 05:26:28;;;;;;;;;;;9.20;88.50;;;;;;4964223;28;19980;-65
2024/02/19 05:29:02;;;;;;;;;;;9.20;88.00;;;;;;4968573;28;20476;-65
2024/02/19 05:31:35;;;;;;;;;;;9.10;87.60;;;;;;4968276;28;19937;-64
2024/02/19 05:34:08;;;;;;;;;;;9.10;87.20;;;;;;4962012;28;20263;-65
2024/02/19 05:36:43;;;;;;;;;;;9.00;86.70;;;;;;4967221;28;19932;-65
2024/02/19 05:39:16;;;;;;;;;;;9.00;87.00;;;;;;4965508;28;19930;-65
2024/02/19 05:41:49;;;;;;;;;;;9.10;86.80;;;;;;4964585;28;19936;-65
2024/02/19 05:44:22;;;;;;;;;;;9.00;86.30;;;;;;4965493;28;19937;-65
2024/02/19 05:46:49;;;;;;;;;;;9.00;86.40;;;;;;4964499;28;20631;-64
2024/02/19 05:49:23;;;;;;;;;;;9.00;86.20;;;;;;4966328;28;19930;-64
2024/02/19 05:51:57;;;;;;;;;;;8.90;85.40;;;;;;4963716;28;20304;-64
2024/02/19 05:54:31;;;;;;;;;;;8.90;85.20;;;;;;4968981;28;19973;-65
2024/02/19 05:57:06;;;;;;;;;;;8.90;85.40;;;;;;4964632;28;19941;-65
2024/02/19 05:59:39;;;;;;;;;;;8.90;85.40;;;;;;4966711;28;20373;-65
2024/02/19 06:02:12;;;;;;;;;;;8.70;84.50;;;;;;4962874;28;19926;-65
2024/02/19 06:04:45;;;;;;;;;;;8.70;84.40;;;;;;4964205;28;20274;-64
2024/02/19 06:07:20;;;;;;;;;;;8.70;85.10;;;;;;4964818;28;19938;-65
2024/02/19 06:10:01;;;;;;;;;;;8.70;84.90;;;;;;4968706;28;19948;-67
2024/02/19 06:12:34;;;;;;;;;;;8.70;84.80;;;;;;4965351;28;19934;-65
2024/02/19 06:15:08;;;;;;;;;;;8.80;84.90;;;;;;4966477;28;20035;-61
2024/02/19 06:17:41;;;;;;;;;;;8.70;84.60;;;;;;4965874;28;19926;-60
2024/02/19 06:20:21;;;;;;;;;;;8.80;84.50;;;;;;4968364;28;19966;-61
2024/02/19 06:22:56;;;;;;;;;;;8.70;84.40;;;;;;4967641;28;19938;-61
2024/02/19 06:25:28;;;;;;;;;;;8.70;84.50;;;;;;4967440;28;20397;-60
2024/02/19 06:28:02;;;;;;;;;;;8.70;84.50;;;;;;4965597;28;20012;-60
2024/02/19 06:30:36;;;;;;;;;;;8.70;84.30;;;;;;4965345;28;19934;-61
2024/02/19 06:33:08;;;;;;;;;;;8.70;84.50;;;;;;4968887;28;20381;-61
2024/02/19 06:35:41;;;;;;;;;;;8.70;84.60;;;;;;4968392;28;19999;-60
2024/02/19 06:38:16;;;;;;;;;;;8.70;84.70;;;;;;4960805;28;19926;-60
2024/02/19 06:40:50;;;;;;;;;;;8.70;84.50;;;;;;4960547;28;19930;-60
2024/02/19 06:43:23;;;;;;;;;;;8.70;84.70;;;;;;4966330;28;19930;-61
2024/02/19 06:45:56;;;;;;;;;;;8.70;85.00;;;;;;4964156;28;19926;-60
2024/02/19 06:48:29;;;;;;;;;;;8.70;85.00;;;;;;4967883;28;20346;-61
2024/02/19 06:51:04;;;;;;;;;;;8.70;84.80;;;;;;4966433;28;19934;-64
2024/02/19 06:53:38;;;;;;;;;;;8.70;85.00;;;;;;4967294;28;19988;-64
2024/02/19 06:56:12;;;;;;;;;;;8.70;85.20;;;;;;4964077;28;20382;-61
2024/02/19 06:58:45;;;;;;;;;;;8.70;85.30;;;;;;4966691;28;20377;-60
2024/02/19 07:01:18;;;;;;;;;;;8.70;85.30;;;;;;4965349;28;19926;-61
2024/02/19 07:03:52;;;;;;;;;;;8.70;85.20;;;;;;4966226;28;20353;-60
2024/02/19 07:06:26;;;;;;;;;;;8.70;85.30;;;;;;4967704;28;20362;-60
2024/02/19 07:09:01;;;;;;;;;;;8.70;85.30;;;;;;4962818;28;20386;-60
2024/02/19 07:11:34;;;;;;;;;;;8.70;85.40;;;;;;4965410;28;19933;-60
2024/02/19 07:14:07;;;;;;;;;;;8.70;85.30;;;;;;4966195;28;20029;-61
2024/02/19 07:16:40;;;;;;;;;;;8.70;85.20;;;;;;4969545;28;20417;-61
2024/02/19 07:19:16;;;;;;;;;;;8.70;85.30;;;;;;4969180;28;20444;-61
2024/02/19 07:21:49;;;;;;;;;;;8.70;85.60;;;;;;4968143;28;19933;-62
2024/02/19 07:24:26;;;;;;;;;;;8.70;85.60;;;;;;4968053;28;19966;-70
2024/02/19 07:26:59;;;;;;;;;;;8.70;85.70;;;;;;4970668;28;19930;-71
2024/02/19 07:29:32;;;;;;;;;;;8.70;85.70;;;;;;4968517;28;19940;-72
2024/02/19 07:32:06;;;;;;;;;;;8.80;85.60;;;;;;4968149;28;19930;-71
2024/02/19 07:34:39;;;;;;;;;;;8.80;85.50;;;;;;4968848;28;19932;-70
2024/02/19 07:37:13;;;;;;;;;;;8.80;85.80;;;;;;4962055;28;20362;-71
2024/02/19 07:39:47;;;;;;;;;;;8.90;85.80;;;;;;4965405;28;20013;-70
2024/02/19 07:42:20;;;;;;;;;;;8.90;85.80;;;;;;4968044;28;19989;-70
2024/02/19 07:48:00;;;;;;;;;;;8.90;85.70;;;;;;4966077;28;20021;-71
2024/02/19 07:50:33;;;;;;;;;;;8.90;85.60;;;;;;4971311;28;19930;-71
2024/02/19 07:53:07;;;;;;;;;;;9.00;85.60;;;;;;4971010;28;19965;-71
2024/02/19 07:55:41;;;;;;;;;;;9.00;85.60;;;;;;4969299;28;19937;-71
2024/02/19 07:58:16;;;;;;;;;;;9.00;85.70;;;;;;4954904;28;19934;-70
2024/02/19 08:00:50;;;;;;;;;;;9.00;85.80;;;;;;4961108;28;19926;-69
2024/02/19 08:03:24;;;;;;;;;;;9.00;85.80;;;;;;4968474;28;19989;-71
2024/02/19 08:05:57;;;;;;;;;;;9.10;85.90;;;;;;4969376;28;20385;-71
2024/02/19 08:08:29;;;;;;;;;;;9.00;85.90;;;;;;4968788;28;20468;-71
2024/02/19 08:11:04;;;;;;;;;;;9.00;85.70;;;;;;4969928;28;19996;-70
2024/02/19 08:13:38;;;;;;;;;;;9.00;85.90;;;;;;4967580;28;19926;-70
2024/02/19 08:16:10;;;;;;;;;;;9.00;85.80;;;;;;4959648;28;20370;-71
2024/02/19 08:18:43;;;;;;;;;;;9.00;85.90;;;;;;4971104;28;20330;-71
2024/02/19 08:21:17;;;;;;;;;;;9.00;85.90;;;;;;4970322;28;20296;-71
2024/02/19 10:54:29;;;;;;;;;;;10.90;81.70;;;;;;4957881;28;20868;-62
2024/02/19 10:57:07;;;;;;;;;;;10.90;81.60;;;;;;4965874;28;19965;-60
2024/02/19 10:59:41;;;;;;;;;;;11.00;81.70;;;;;;4968503;28;19930;-61
2024/02/19 11:02:19;;;;;;;;;;;11.10;81.60;;;;;;4971006;28;19926;-60
2024/02/19 11:04:52;;;;;;;;;;;11.20;81.20;;;;;;4974069;28;19930;-60
2024/02/19 11:07:31;;;;;;;;;;;11.20;81.00;;;;;;4970756;28;19930;-62
2024/02/19 11:10:06;;;;;;;;;;;11.20;80.80;;;;;;4970034;28;19957;-61
2024/02/19 11:12:41;;;;;;;;;;;11.20;81.20;;;;;;4968963;28;20369;-61
2024/02/19 11:15:16;;;;;;;;;;;11.10;81.20;;;;;;4967161;28;19974;-62
2024/02/19 11:17:53;;;;;;;;;;;11.10;81.50;;;;;;4970377;28;19930;-60
2024/02/19 11:20:26;;;;;;;;;;;11.00;81.80;;;;;;4970243;28;19937;-62
2024/02/19 11:22:59;;;;;;;;;;;10.90;82.20;;;;;;4971262;28;20400;-60
2024/02/19 11:25:34;;;;;;;;;;;10.90;82.60;;;;;;4967062;28;19938;-60
2024/02/19 11:28:08;;;;;;;;;;;10.80;83.10;;;;;;4965711;28;20029;-63
2024/02/19 11:30:41;;;;;;;;;;;10.80;83.20;;;;;;4967529;28;19937;-61
2024/02/19 11:33:14;;;;;;;;;;;10.80;83.10;;;;;;4968653;28;19930;-59
2024/02/19 11:35:47;;;;;;;;;;;10.90;83.20;;;;;;4968736;28;19985;-61
2024/02/19 11:38:20;;;;;;;;;;;10.80;82.90;;;;;;4968828;28;20476;-62
2024/02/19 11:40:54;;;;;;;;;;;10.80;83.00;;;;;;4966621;28;19956;-61
2024/02/19 11:43:21;;;;;;;;;;;10.80;82.80;;;;;;4967798;28;19934;-62
2024/02/19 11:45:54;;;;;;;;;;;10.80;82.80;;;;;;4966886;28;19926;-62
2024/02/19 11:48:27;;;;;;;;;;;10.90;82.60;;;;;;4966407;28;19940;-61
2024/02/19 11:51:06;;;;;;;;;;;11.00;82.70;;;;;;4967924;28;19926;-60
2024/02/19 11:53:40;;;;;;;;;;;11.10;82.30;;;;;;4970461;28;19926;-62
2024/02/19 11:56:18;;;;;;;;;;;11.10;82.20;;;;;;4963803;28;19926;-60
2024/02/19 11:58:51;;;;;;;;;;;11.20;82.10;;;;;;4968934;28;19933;-62
2024/02/19 12:01:24;;;;;;;;;;;11.10;81.90;;;;;;4969208;28;19926;-61
2024/02/19 12:03:58;;;;;;;;;;;11.20;81.90;;;;;;4967484;28;20013;-61
2024/02/19 12:06:34;;;;;;;;;;;11.20;81.80;;;;;;4970805;28;19926;-61
2024/02/19 12:09:15;;;;;;;;;;;11.20;81.60;;;;;;4964320;28;20017;-60
2024/02/19 12:11:50;;;;;;;;;;;11.10;81.70;;;;;;4968792;28;19930;-61
2024/02/19 12:14:25;;;;;;;;;;;11.10;81.40;;;;;;4967556;28;19965;-61
2024/02/19 12:17:02;;;;;;;;;;;11.10;81.40;;;;;;4964888;28;19937;-62
2024/02/19 12:19:35;;;;;;;;;;;11.00;81.20;;;;;;4967701;28;19930;-60
2024/02/19 12:22:01;;;;;;;;;;;11.00;81.30;;;;;;4966723;28;20405;-60
2024/02/19 12:24:35;;;;;;;;;;;11.00;81.30;;;;;;4969105;28;20017;-61
2024/02/19 12:27:09;;;;;;;;;;;11.00;81.30;;;;;;4968704;28;19930;-60
2024/02/19 12:29:43;;;;;;;;;;;11.00;81.40;;;;;;4966289;28;19969;-60
2024/02/19 12:32:16;;;;;;;;;;;11.00;81.60;;;;;;4966366;28;20008;-61
2024/02/19 12:34:49;;;;;;;;;;;11.00;81.60;;;;;;4970229;28;19926;-60
2024/02/19 12:37:22;;;;;;;;;;;11.10;81.40;;;;;;4966268;28;19930;-61
2024/02/19 12:39:55;;;;;;;;;;;11.10;81.40;;;;;;4964576;28;19973;-60
2024/02/19 12:42:36;;;;;;;;;;;11.20;80.80;;;;;;4967635;28;19953;-60
2024/02/19 12:45:09;;;;;;;;;;;11.30;80.60;;;;;;4961155;28;19933;-60
2024/02/19 12:47:43;;;;;;;;;;;11.30;80.30;;;;;;4968232;28;19936;-62
2024/02/19 12:50:17;;;;;;;;;;;11.30;80.40;;;;;;4965130;28;19927;-62
2024/02/19 12:52:50;;;;;;;;;;;11.40;80.30;;;;;;4966268;28;20392;-60
2024/02/19 12:55:23;;;;;;;;;;;11.40;80.40;;;;;;4966408;28;20054;-61
2024/02/19 12:57:57;;;;;;;;;;;11.40;80.30;;;;;;4963906;28;19934;-62
2024/02/19 13:00:31;;;;;;;;;;;11.40;80.10;;;;;;4968476;28;19926;-60
2024/02/19 13:03:04;;;;;;;;;;;11.50;80.10;;;;;;4966994;28;19934;-60
2024/02/19 13:05:37;;;;;;;;;;;11.50;80.00;;;;;;4966906;28;20017;-61
2024/02/19 13:08:11;;;;;;;;;;;11.60;79.70;;;;;;4967569;28;19932;-63
2024/02/19 13:10:45;;;;;;;;;;;11.50;79.80;;;;;;4963790;28;20003;-62
2024/02/19 13:13:20;;;;;;;;;;;11.60;79.80;;;;;;4964850;28;19942;-61
2024/02/19 13:15:53;;;;;;;;;;;11.60;79.70;;;;;;4963886;28;20001;-70
2024/02/19 13:18:27;;;;;;;;;;;11.60;79.30;;;;;;4965290;28;19961;-71
2024/02/19 13:21:00;;;;;;;;;;;11.60;79.20;;;;;;4966755;28;19938;-69
2024/02/19 13:23:33;;;;;;;;;;;11.70;79.20;;;;;;4968310;28;19956;-69
2024/02/19 13:26:02;;;;;;;;;;;11.70;78.70;;;;;;4968408;28;19936;-71
2024/02/19 13:28:36;;;;;;;;;;;11.70;79.00;;;;;;4967473;28;19937;-70
2024/02/19 13:31:10;;;;;;;;;;;11.90;78.60;;;;;;4966066;28;19933;-71
2024/02/19 13:33:44;;;;;;;;;;;11.90;78.70;;;;;;4966427;28;20370;-71
2024/02/19 13:36:11;;;;;;;;;;;11.90;78.60;;;;;;4968416;28;19940;-71
2024/02/19 13:38:47;;;;;;;;;;;11.80;78.80;;;;;;4969027;28;19930;-70
2024/02/19 13:41:20;;;;;;;;;;;11.80;78.70;;;;;;4966810;28;19930;-70
2024/02/19 13:43:54;;;;;;;;;;;11.80;79.00;;;;;;4964191;28;19930;-72
2024/02/19 13:46:28;;;;;;;;;;;11.80;79.00;;;;;;4966688;28;19926;-70
2024/02/19 13:49:03;;;;;;;;;;;11.80;79.20;;;;;;4966125;28;19934;-70
2024/02/19 13:51:36;;;;;;;;;;;11.80;79.10;;;;;;4969203;28;20448;-70
2024/02/19 13:54:09;;;;;;;;;;;11.80;78.90;;;;;;4965875;28;20448;-71
2024/02/19 13:56:42;;;;;;;;;;;11.80;78.80;;;;;;4964992;28;20012;-72
2024/02/19 13:59:16;;;;;;;;;;;11.90;78.60;;;;;;4964637;28;19937;-70
2024/02/19 14:01:50;;;;;;;;;;;11.90;78.60;;;;;;4966146;28;20382;-70
2024/02/19 14:04:23;;;;;;;;;;;11.90;78.90;;;;;;4967001;28;20428;-70
2024/02/19 14:06:56;;;;;;;;;;;11.90;78.80;;;;;;4959954;28;19934;-68
2024/02/19 14:09:30;;;;;;;;;;;11.90;78.80;;;;;;4966245;28;20360;-71
2024/02/19 14:12:04;;;;;;;;;;;11.90;78.60;;;;;;4967578;28;19981;-68
2024/02/19 14:14:38;;;;;;;;;;;12.00;78.60;;;;;;4968438;28;19930;-70
2024/02/19 14:17:12;;;;;;;;;;;12.00;78.60;;;;;;4961429;28;20018;-69
2024/02/19 14:19:45;;;;;;;;;;;12.00;78.50;;;;;;4965336;28;19930;-72
2024/02/19 14:22:18;;;;;;;;;;;12.00;78.30;;;;;;4967841;28;19930;-71
2024/02/19 14:24:44;;;;;;;;;;;12.00;78.40;;;;;;4966966;28;19926;-74
2024/02/19 14:27:18;;;;;;;;;;;12.00;78.70;;;;;;4968709;28;20018;-73
2024/02/19 14:29:52;;;;;;;;;;;12.00;79.00;;;;;;4971169;28;19937;-72
2024/02/19 14:32:26;;;;;;;;;;;12.00;79.30;;;;;;4968408;28;19997;-73
2024/02/19 14:34:59;;;;;;;;;;;12.00;79.40;;;;;;4971196;28;19934;-73
2024/02/19 14:37:36;;;;;;;;;;;11.90;79.40;;;;;;4969770;28;19938;-73
2024/02/19 14:40:13;;;;;;;;;;;11.90;79.30;;;;;;4970008;28;19930;-71
2024/02/19 14:42:46;;;;;;;;;;;11.90;79.60;;;;;;4972162;28;20079;-73
2024/02/19 14:45:20;;;;;;;;;;;11.90;79.50;;;;;;4956985;28;20013;-74
2024/02/19 14:47:53;;;;;;;;;;;11.80;79.20;;;;;;4962288;28;19926;-73
2024/02/19 14:50:26;;;;;;;;;;;11.80;79.30;;;;;;4970620;28;20020;-71
2024/02/19 14:52:59;;;;;;;;;;;11.80;79.10;;;;;;4970304;28;19934;-71
2024/02/19 14:55:32;;;;;;;;;;;11.70;79.30;;;;;;4970432;28;19930;-74
2024/02/19 14:58:05;;;;;;;;;;;11.80;79.10;;;;;;4971892;28;19934;-72
2024/02/19 15:00:41;;;;;;;;;;;11.70;79.00;;;;;;4966397;28;19934;-72
2024/02/19 15:03:14;;;;;;;;;;;11.70;79.80;;;;;;4971068;28;19988;-72
2024/02/19 15:05:47;;;;;;;;;;;11.70;79.50;;;;;;4969902;28;19961;-73
2024/02/19 15:08:20;;;;;;;;;;;11.70;80.10;;;;;;4972442;28;19934;-73
2024/02/19 15:10:54;;;;;;;;;;;11.60;79.40;;;;;;4971516;28;19926;-72
2024/02/19 15:13:27;;;;;;;;;;;11.60;79.90;;;;;;4970972;28;19926;-72
2024/02/19 15:16:01;;;;;;;;;;;11.60;79.40;;;;;;4966063;28;19926;-74
2024/02/19 15:18:35;;;;;;;;;;;11.60;79.70;;;;;;4971283;28;19930;-72
2024/02/19 15:21:08;;;;;;;;;;;11.60;79.70;;;;;;4972254;28;19973;-73
2024/02/19 15:23:41;;;;;;;;;;;11.60;79.70;;;;;;4972704;28;19926;-73
2024/02/19 15:26:14;;;;;;;;;;;11.50;79.70;;;;;;4971575;28;19981;-71
2024/02/19 15:28:48;;;;;;;;;;;11.50;79.90;;;;;;4966385;28;19934;-72
2024/02/19 15:31:22;;;;;;;;;;;11.50;79.70;;;;;;4969899;28;19926;-72
2024/02/19 15:33:56;;;;;;;;;;;11.50;80.30;;;;;;4966814;28;19933;-63
2024/02/19 15:36:29;;;;;;;;;;;11.60;80.30;;;;;;4969349;28;19933;-71
2024/02/19 15:38:55;;;;;;;;;;;11.60;80.10;;;;;;4970701;28;20397;-69
2024/02/19 15:41:30;;;;;;;;;;;11.60;80.50;;;;;;4971295;28;19932;-70
2024/02/19 15:44:04;;;;;;;;;;;11.60;79.90;;;;;;4970034;28;19937;-71
2024/02/19 15:46:39;;;;;;;;;;;11.60;79.80;;;;;;4969481;28;20656;-71
2024/02/19 15:49:13;;;;;;;;;;;11.60;80.30;;;;;;4956233;28;20024;-71
2024/02/19 15:51:47;;;;;;;;;;;11.60;79.80;;;;;;4966966;28;19934;-71
2024/02/19 15:54:22;;;;;;;;;;;11.50;79.80;;;;;;4962209;28;19930;-70
2024/02/19 15:56:56;;;;;;;;;;;11.50;80.50;;;;;;4966337;28;20649;-71
2024/02/19 15:59:29;;;;;;;;;;;11.50;80.40;;;;;;4966006;28;19949;-70
2024/02/19 16:02:03;;;;;;;;;;;11.50;80.40;;;;;;4965718;28;19932;-70
2024/02/19 16:04:37;;;;;;;;;;;11.50;80.70;;;;;;4963787;28;20504;-71
2024/02/19 16:07:10;;;;;;;;;;;11.40;80.50;;;;;;4964453;28;20312;-71
2024/02/19 16:09:43;;;;;;;;;;;11.40;80.50;;;;;;4969380;28;19930;-71
2024/02/19 16:12:16;;;;;;;;;;;11.40;80.90;;;;;;4966299;28;20020;-71
2024/02/19 16:14:42;;;;;;;;;;;11.30;80.80;;;;;;4967128;28;20432;-70
2024/02/19 16:17:17;;;;;;;;;;;11.30;81.40;;;;;;4964623;28;20039;-70
2024/02/19 16:19:53;;;;;;;;;;;11.30;81.50;;;;;;4965734;28;19926;-71
2024/02/19 16:22:26;;;;;;;;;;;11.20;81.40;;;;;;4963092;28;20025;-71
2024/02/19 16:25:00;;;;;;;;;;;11.10;82.00;;;;;;4967873;28;19930;-70
2024/02/19 16:27:33;;;;;;;;;;;11.20;82.40;;;;;;4968535;28;19965;-71
2024/02/19 16:30:08;;;;;;;;;;;11.10;82.60;;;;;;4965751;28;20032;-71
2024/02/19 16:32:43;;;;;;;;;;;11.10;82.90;;;;;;4967279;28;20612;-70
2024/02/19 16:35:17;;;;;;;;;;;11.10;82.90;;;;;;4966576;28;19937;-71
2024/02/19 16:37:50;;;;;;;;;;;11.00;83.20;;;;;;4965929;28;20413;-71
2024/02/19 16:40:23;;;;;;;;;;;11.00;83.10;;;;;;4969173;28;21613;-70
2024/02/19 16:42:56;;;;;;;;;;;10.90;83.30;;;;;;4966505;28;20285;-70
2024/02/19 16:45:31;;;;;;;;;;;10.90;83.40;;;;;;4963858;28;19933;-66
2024/02/19 16:48:07;;;;;;;;;;;10.90;83.70;;;;;;4960060;28;19984;-67
2024/02/19 16:50:42;;;;;;;;;;;10.90;83.70;;;;;;4968960;28;19934;-66
2024/02/19 16:53:15;;;;;;;;;;;10.80;83.90;;;;;;4966568;28;19934;-65
2024/02/19 16:55:49;;;;;;;;;;;10.70;84.00;;;;;;4966187;28;20427;-65
2024/02/19 16:58:22;;;;;;;;;;;10.70;84.30;;;;;;4958040;28;19930;-65
2024/02/19 17:00:57;;;;;;;;;;;10.70;84.30;;;;;;4962045;28;19940;-67
2024/02/19 17:03:31;;;;;;;;;;;10.70;84.40;;;;;;4968503;28;20385;-65
2024/02/19 17:06:05;;;;;;;;;;;10.70;84.60;;;;;;4967007;28;19940;-66
2024/02/19 17:08:40;;;;;;;;;;;10.70;84.50;;;;;;4965166;28;19937;-66
2024/02/19 17:11:13;;;;;;;;;;;10.70;84.60;;;;;;4965377;28;19940;-66
2024/02/19 17:13:47;;;;;;;;;;;10.60;84.70;;;;;;4967048;28;19969;-64
2024/02/19 17:16:20;;;;;;;;;;;10.60;84.90;;;;;;4968655;28;19940;-64
2024/02/19 17:18:54;;;;;;;;;;;10.60;85.00;;;;;;4969416;28;19929;-66
2024/02/19 17:21:28;;;;;;;;;;;10.60;84.90;;;;;;4969822;28;20329;-66
2024/02/19 17:24:01;;;;;;;;;;;10.60;85.00;;;;;;4968144;28;19973;-65
2024/02/19 17:26:36;;;;;;;;;;;10.60;85.10;;;;;;4969818;28;19926;-65
2024/02/19 17:29:10;;;;;;;;;;;10.60;85.20;;;;;;4968039;28;19926;-65
2024/02/19 17:31:45;;;;;;;;;;;10.60;85.30;;;;;;4967922;28;19933;-66
2024/02/19 17:34:19;;;;;;;;;;;10.60;85.20;;;;;;4965841;28;20037;-67
2024/02/19 17:36:53;;;;;;;;;;;10.60;85.30;;;;;;4969702;28;19930;-65
2024/02/19 17:39:27;;;;;;;;;;;10.60;85.60;;;;;;4969156;28;19926;-66